Time;durP1;ratioP1;P1;durP2;ratioP2;P2;SDS_P1;SDS_P2;PMS_P1;PMS_P2;Temp;Humidity;BMP_temperature;BMP_pressure;BME280_temperature;BME280_humidity;BME280_pressure;Samples;Min_cycle;Max_cycle;Signal;HPM_P1;HPM_P2
2022/07/14 00:02:18;;;;;;;10.13;4.50;;;20.30;99.90;;;;;;5025653;28;20578;-69
2022/07/14 00:04:44;;;;;;;7.17;3.50;;;20.20;99.90;;;;;;5024282;28;20177;-80
2022/07/14 00:07:13;;;;;;;6.23;3.40;;;20.20;99.90;;;;;;5026382;28;20573;-79
2022/07/14 00:09:39;;;;;;;10.50;4.77;;;20.10;99.90;;;;;;5025909;28;20178;-79
2022/07/14 00:12:05;;;;;;;4.97;3.63;;;20.10;99.90;;;;;;5023863;28;20239;-72
2022/07/14 00:14:30;;;;;;;7.90;3.10;;;19.70;99.90;;;;;;5026210;28;20219;-77
2022/07/14 00:16:56;;;;;;;6.20;4.43;;;19.70;99.90;;;;;;5025057;28;20613;-76
2022/07/14 00:19:22;;;;;;;4.87;3.77;;;19.50;99.90;;;;;;5033936;28;20173;-68
2022/07/14 00:21:48;;;;;;;12.83;4.23;;;18.00;99.90;;;;;;5035112;28;20222;-76
2022/07/14 00:24:14;;;;;;;8.37;3.47;;;-16.80;99.90;;;;;;5033698;28;20226;-75
2022/07/14 00:26:40;;;;;;;5.30;2.70;;;3.50;99.90;;;;;;5024779;28;20581;-78
2022/07/14 00:29:07;;;;;;;6.90;3.70;;;20.70;99.90;;;;;;5026166;28;20169;-79
2022/07/14 00:31:33;;;;;;;6.13;3.20;;;20.70;99.90;;;;;;5032600;28;20184;-73
2022/07/14 00:33:59;;;;;;;10.40;3.37;;;20.80;99.90;;;;;;5034836;28;20169;-74
2022/07/14 00:36:28;;;;;;;8.20;4.03;;;20.70;99.90;;;;;;5034118;28;20599;-68
2022/07/14 00:38:55;;;;;;;6.73;3.70;;;20.60;99.90;;;;;;5032348;28;20267;-75
2022/07/14 00:41:21;;;;;;;7.03;4.80;;;20.60;99.90;;;;;;5034797;28;20503;-71
2022/07/14 00:43:47;;;;;;;6.03;2.93;;;20.70;99.90;;;;;;5024036;28;20588;-72
2022/07/14 00:46:12;;;;;;;5.13;2.10;;;20.70;99.90;;;;;;5032242;28;20603;-74
2022/07/14 00:48:38;;;;;;;10.73;5.00;;;20.60;99.90;;;;;;5035016;28;20169;-80
2022/07/14 00:51:05;;;;;;;4.37;3.23;;;20.60;99.90;;;;;;5024174;28;20538;-72
2022/07/14 00:53:30;;;;;;;5.17;3.17;;;20.50;99.90;;;;;;5024903;28;20177;-75
2022/07/14 00:55:57;;;;;;;10.20;3.17;;;20.50;99.90;;;;;;5024058;28;20292;-76
2022/07/14 00:58:23;;;;;;;6.07;2.73;;;20.50;99.90;;;;;;5034901;28;20177;-74
2022/07/14 01:00:49;;;;;;;8.17;3.80;;;20.50;99.90;;;;;;5038176;28;20197;-73
2022/07/14 01:03:15;;;;;;;7.43;3.37;;;20.30;99.90;;;;;;5038341;28;20176;-71
2022/07/14 01:05:41;;;;;;;4.83;3.10;;;20.30;99.90;;;;;;5028335;28;20477;-72
2022/07/14 01:08:07;;;;;;;8.97;3.63;;;20.30;99.90;;;;;;5029052;28;20595;-67
2022/07/14 01:10:33;;;;;;;5.40;3.67;;;20.20;99.90;;;;;;5037798;28;20204;-66
2022/07/14 01:13:02;;;;;;;11.53;4.83;;;20.20;99.90;;;;;;5028684;28;20200;-67
2022/07/14 01:15:28;;;;;;;12.87;4.17;;;20.30;99.90;;;;;;5028926;28;20173;-75
2022/07/14 01:17:54;;;;;;;11.50;3.13;;;20.20;99.90;;;;;;5038058;28;20194;-74
2022/07/14 01:20:21;;;;;;;13.13;3.57;;;20.10;99.90;;;;;;5037840;28;20184;-77
2022/07/14 01:22:47;;;;;;;14.40;4.17;;;20.00;99.90;;;;;;5037945;28;20181;-69
2022/07/14 01:25:15;;;;;;;6.53;3.80;;;20.00;99.90;;;;;;5036489;28;20175;-76
2022/07/14 01:27:40;;;;;;;6.43;2.73;;;20.00;99.90;;;;;;5037050;28;20173;-71
2022/07/14 01:30:08;;;;;;;13.37;4.47;;;19.90;99.90;;;;;;5037730;28;20180;-73
2022/07/14 01:32:34;;;;;;;8.57;3.63;;;19.80;99.90;;;;;;5026855;28;20601;-79
2022/07/14 01:35:00;;;;;;;7.63;3.53;;;19.70;99.90;;;;;;5037591;28;20576;-73
2022/07/14 01:37:26;;;;;;;11.33;3.80;;;19.50;99.90;;;;;;5037572;28;20176;-79
2022/07/14 01:39:52;;;;;;;6.27;2.87;;;19.60;99.90;;;;;;5025321;28;20208;-77
2022/07/14 01:42:18;;;;;;;10.07;4.37;;;19.30;99.90;;;;;;5037566;28;20173;-77
2022/07/14 01:44:44;;;;;;;13.30;3.30;;;18.80;99.90;;;;;;5037536;28;20588;-69
2022/07/14 01:47:10;;;;;;;5.10;3.27;;;17.70;99.90;;;;;;5026765;28;20504;-72
2022/07/14 01:49:36;;;;;;;8.67;3.67;;;19.90;99.90;;;;;;5027548;28;20184;-75
2022/07/14 01:52:03;;;;;;;5.77;3.17;;;20.10;99.90;;;;;;5027082;28;20231;-72
2022/07/14 01:54:29;;;;;;;6.60;3.47;;;20.10;99.90;;;;;;5026808;28;20279;-73
2022/07/14 01:56:55;;;;;;;4.80;2.90;;;20.20;99.90;;;;;;5028410;28;20173;-72
2022/07/14 01:59:21;;;;;;;6.03;3.00;;;20.10;99.90;;;;;;5026785;28;20180;-73
2022/07/14 02:01:47;;;;;;;6.07;3.60;;;20.00;99.90;;;;;;5037054;28;20215;-68
2022/07/14 02:04:15;;;;;;;8.67;3.93;;;19.90;99.90;;;;;;5036920;28;20247;-70
2022/07/14 02:06:46;;;;;;;9.80;4.70;;;19.90;99.90;;;;;;5034706;28;20180;-71
2022/07/14 02:09:12;;;;;;;8.03;3.43;;;20.00;99.90;;;;;;5036600;28;20173;-69
2022/07/14 02:14:23;;;;;;;5.87;3.43;;;19.90;99.90;;;;;;5034809;28;20587;-70
2022/07/14 02:16:49;;;;;;;8.10;3.53;;;19.90;99.90;;;;;;5037137;28;20176;-71
2022/07/14 02:19:15;;;;;;;10.47;3.97;;;20.00;99.90;;;;;;5036724;28;20187;-68
2022/07/14 02:21:42;;;;;;;6.50;3.67;;;19.90;99.90;;;;;;5027689;28;20196;-69
2022/07/14 02:24:09;;;;;;;8.07;3.23;;;19.90;99.90;;;;;;5026710;28;20169;-69
2022/07/14 02:26:36;;;;;;;9.03;3.23;;;19.90;99.90;;;;;;5036776;28;20568;-68
2022/07/14 02:29:05;;;;;;;4.77;3.50;;;19.80;99.90;;;;;;5036580;28;20169;-70
2022/07/14 02:31:31;;;;;;;8.80;3.87;;;19.80;99.90;;;;;;5036639;28;20176;-67
2022/07/14 02:33:57;;;;;;;6.63;3.23;;;19.80;99.90;;;;;;5025678;28;20199;-75
2022/07/14 02:36:23;;;;;;;8.43;3.33;;;19.80;99.90;;;;;;5036433;28;20208;-66
2022/07/14 02:38:49;;;;;;;7.50;4.03;;;19.70;99.90;;;;;;5036157;28;20235;-68
2022/07/14 02:41:15;;;;;;;8.63;3.43;;;19.70;99.90;;;;;;5036276;28;20634;-73
2022/07/14 02:43:41;;;;;;;11.90;4.17;;;19.70;99.90;;;;;;5036267;28;20200;-74
2022/07/14 02:46:07;;;;;;;7.07;3.03;;;19.60;99.90;;;;;;5036196;28;20193;-76
2022/07/14 02:48:33;;;;;;;10.20;4.10;;;19.50;99.90;;;;;;5026007;28;20164;-70
2022/07/14 02:51:05;;;;;;;10.20;3.67;;;19.40;99.90;;;;;;5027410;28;20177;-67
2022/07/14 02:53:31;;;;;;;8.67;3.37;;;19.30;99.90;;;;;;5026243;28;20178;-70
2022/07/14 02:55:57;;;;;;;9.83;4.03;;;19.30;99.90;;;;;;5025350;28;20186;-67
2022/07/14 02:58:24;;;;;;;5.23;4.37;;;19.30;99.90;;;;;;5033366;28;20173;-73
2022/07/14 03:00:49;;;;;;;8.00;4.73;;;19.20;99.90;;;;;;5036113;28;20522;-68
2022/07/14 03:03:16;;;;;;;8.33;4.43;;;19.10;99.90;;;;;;5035946;28;20168;-70
2022/07/14 03:05:42;;;;;;;7.50;4.33;;;18.90;99.90;;;;;;5035812;28;20255;-71
2022/07/14 03:08:09;;;;;;;6.77;3.43;;;18.80;99.90;;;;;;5035766;28;20188;-77
2022/07/14 03:10:35;;;;;;;9.83;4.80;;;18.50;99.90;;;;;;5035995;28;20307;-75
2022/07/14 03:13:01;;;;;;;9.63;3.70;;;18.30;99.90;;;;;;5035651;28;20177;-78
2022/07/14 03:15:26;;;;;;;8.23;4.47;;;16.30;99.90;;;;;;5035931;28;20180;-69
2022/07/14 03:17:52;;;;;;;7.80;3.97;;;19.20;99.90;;;;;;5035826;28;20194;-70
2022/07/14 03:20:18;;;;;;;7.37;3.90;;;19.00;99.90;;;;;;5035380;28;20197;-75
2022/07/14 03:22:45;;;;;;;16.50;6.27;;;19.00;99.90;;;;;;5034905;28;20204;-74
2022/07/14 03:25:11;;;;;;;10.23;4.70;;;19.00;99.90;;;;;;5035642;28;20241;-75
2022/07/14 03:27:38;;;;;;;10.40;4.97;;;18.90;99.90;;;;;;5035604;28;20607;-72
2022/07/14 03:30:08;;;;;;;9.37;5.90;;;18.90;99.90;;;;;;5035853;28;20181;-70
2022/07/14 03:32:34;;;;;;;18.13;5.10;;;18.80;99.90;;;;;;5024504;28;20172;-76
2022/07/14 03:35:03;;;;;;;8.20;4.83;;;18.80;99.90;;;;;;5026746;28;20188;-73
2022/07/14 03:37:29;;;;;;;9.33;4.40;;;18.80;99.90;;;;;;5023791;28;20181;-71
2022/07/14 03:39:55;;;;;;;10.80;4.87;;;18.70;99.90;;;;;;5025280;28;20608;-68
2022/07/14 03:42:23;;;;;;;17.03;5.57;;;18.70;99.90;;;;;;5026580;28;20202;-70
2022/07/14 03:44:49;;;;;;;7.90;4.50;;;18.60;99.90;;;;;;5024964;28;20219;-68
2022/07/14 03:47:15;;;;;;;12.47;5.37;;;18.50;99.90;;;;;;5035423;28;20189;-71
2022/07/14 03:49:41;;;;;;;9.67;4.67;;;18.40;99.90;;;;;;5035046;28;20227;-74
2022/07/14 03:52:07;;;;;;;11.90;5.07;;;18.00;99.90;;;;;;5032722;28;20238;-67
2022/07/14 03:54:33;;;;;;;9.43;4.90;;;-40.00;99.90;;;;;;5035222;28;20180;-73
2022/07/14 03:56:59;;;;;;;9.30;4.83;;;-37.80;99.90;;;;;;5024853;28;20204;-73
2022/07/14 03:59:25;;;;;;;9.93;5.27;;;-40.00;99.90;;;;;;5026281;28;20180;-68
2022/07/14 04:01:50;;;;;;;7.60;5.40;;;-39.70;99.90;;;;;;5024784;28;20569;-70
2022/07/14 04:04:16;;;;;;;6.10;5.00;;;-40.00;99.90;;;;;;5034930;28;20173;-71
2022/07/14 04:06:42;;;;;;;17.83;5.37;;;-40.00;99.90;;;;;;5035277;28;20204;-75
2022/07/14 04:09:08;;;;;;;6.33;5.03;;;-40.00;99.90;;;;;;5034916;28;20489;-71
2022/07/14 04:11:34;;;;;;;10.73;5.03;;;-40.00;99.90;;;;;;5025513;28;20188;-73
2022/07/14 04:13:59;;;;;;;19.83;6.30;;;-40.00;99.90;;;;;;5025894;28;20177;-73
2022/07/14 04:16:25;;;;;;;10.10;4.93;;;-40.00;99.90;;;;;;5024235;28;20246;-74
2022/07/14 04:18:51;;;;;;;9.33;5.23;;;-40.00;99.90;;;;;;5025597;28;20181;-69
2022/07/14 04:21:17;;;;;;;7.43;5.23;;;-40.00;99.90;;;;;;5025327;28;20515;-69
2022/07/14 04:23:43;;;;;;;6.40;4.57;;;-40.00;99.90;;;;;;5034963;28;20184;-76
2022/07/14 04:26:09;;;;;;;7.70;5.87;;;-40.00;99.90;;;;;;5032478;28;20169;-81
2022/07/14 04:28:35;;;;;;;12.10;6.00;;;-40.00;99.90;;;;;;5034907;28;20188;-69
2022/07/14 04:31:02;;;;;;;6.20;4.33;;;-40.00;99.90;;;;;;5035059;28;20195;-70
2022/07/14 04:33:28;;;;;;;18.27;6.47;;;-39.90;99.90;;;;;;5036542;28;20180;-67
2022/07/14 04:35:54;;;;;;;11.27;5.37;;;-40.00;99.90;;;;;;5038912;28;20180;-73
2022/07/14 04:38:20;;;;;;;12.57;4.63;;;-39.90;99.90;;;;;;5028268;28;20584;-70
2022/07/14 04:40:53;;;;;;;12.90;5.90;;;-40.00;99.90;;;;;;5029726;28;20251;-68
2022/07/14 04:43:19;;;;;;;10.17;4.17;;;-36.90;99.90;;;;;;5028893;28;20170;-76
2022/07/14 04:45:45;;;;;;;11.07;6.27;;;-40.00;99.90;;;;;;5038583;28;20211;-70
2022/07/14 04:48:11;;;;;;;8.50;4.70;;;-40.00;99.90;;;;;;5035854;28;20176;-73
2022/07/14 04:53:21;;;;;;;12.20;5.53;;;-39.40;99.90;;;;;;5037362;28;20223;-68
2022/07/14 04:55:47;;;;;;;12.10;5.03;;;-40.00;99.90;;;;;;5038312;28;20588;-72
2022/07/14 04:58:13;;;;;;;13.37;4.90;;;-38.80;99.90;;;;;;5038606;28;20195;-69
2022/07/14 05:00:39;;;;;;;8.07;5.23;;;-40.00;99.90;;;;;;5028419;28;20206;-68
2022/07/14 05:03:04;;;;;;;11.73;5.03;;;-40.00;99.90;;;;;;5028108;28;20185;-68
2022/07/14 05:05:30;;;;;;;13.83;7.03;;;-38.00;99.90;;;;;;5027079;28;20173;-71
2022/07/14 05:07:56;;;;;;;9.90;4.97;;;-40.00;99.90;;;;;;5028803;28;20176;-75
2022/07/14 05:10:22;;;;;;;9.23;5.57;;;-40.00;99.90;;;;;;5028418;28;20186;-70
2022/07/14 05:12:47;;;;;;;8.40;5.13;;;-40.00;99.90;;;;;;5026558;28;20181;-69
2022/07/14 05:15:13;;;;;;;6.43;3.73;;;-40.00;99.90;;;;;;5034289;28;20677;-71
2022/07/14 05:17:39;;;;;;;14.10;4.90;;;-40.00;99.90;;;;;;5037824;28;20227;-75
2022/07/14 05:20:06;;;;;;;9.30;4.60;;;-40.00;99.90;;;;;;5037824;28;20510;-70
2022/07/14 05:22:36;;;;;;;5.87;4.33;;;-40.00;99.90;;;;;;5038124;28;20263;-76
2022/07/14 05:25:06;;;;;;;6.97;4.37;;;-40.00;99.90;;;;;;5037743;28;20176;-82
2022/07/14 05:27:32;;;;;;;14.83;6.37;;;-40.00;99.90;;;;;;5027008;28;20243;-79
2022/07/14 05:29:57;;;;;;;13.23;6.00;;;-40.00;99.90;;;;;;5028352;28;20216;-72
2022/07/14 05:32:23;;;;;;;13.40;6.33;;;-40.00;99.90;;;;;;5026801;28;20188;-69
2022/07/14 05:34:49;;;;;;;9.77;6.13;;;-40.00;99.90;;;;;;5028883;28;20185;-71
2022/07/14 05:37:15;;;;;;;11.97;5.07;;;-40.00;99.90;;;;;;5026788;28;20188;-68
2022/07/14 05:39:41;;;;;;;11.17;6.23;;;-40.00;99.90;;;;;;5037507;28;20242;-71
2022/07/14 05:42:07;;;;;;;7.83;5.20;;;-40.00;99.90;;;;;;5037578;28;20184;-77
2022/07/14 05:44:35;;;;;;;8.73;6.23;;;-40.00;99.90;;;;;;5025996;28;20205;-75
2022/07/14 05:47:00;;;;;;;7.37;5.60;;;-40.00;99.90;;;;;;5027628;28;20217;-78
2022/07/14 05:49:26;;;;;;;12.80;5.67;;;-40.00;99.90;;;;;;5026932;28;20204;-81
2022/07/14 05:51:52;;;;;;;11.27;4.63;;;-40.00;99.90;;;;;;5037153;28;20177;-81
2022/07/14 05:54:18;;;;;;;9.70;5.63;;;-40.00;99.90;;;;;;5033611;28;20161;-78
2022/07/14 05:56:43;;;;;;;11.50;6.33;;;-40.00;99.90;;;;;;5028787;28;20175;-76
2022/07/14 05:59:09;;;;;;;9.20;5.30;;;-40.00;99.90;;;;;;5034062;28;20172;-72
2022/07/14 06:01:35;;;;;;;7.37;4.97;;;-40.00;99.90;;;;;;5032264;28;20235;-83
2022/07/14 06:04:14;;;;;;;13.57;5.90;;;-40.00;99.90;;;;;;5063180;28;20197;-76
2022/07/14 06:06:47;;;;;;;11.47;5.60;;;-40.00;99.90;;;;;;5035586;28;20566;-81
2022/07/14 06:09:14;;;;;;;13.63;6.27;;;-40.00;99.90;;;;;;5036995;28;20177;-76
2022/07/14 06:11:41;;;;;;;17.50;5.53;;;-40.00;99.90;;;;;;5034779;28;20192;-71
2022/07/14 06:14:07;;;;;;;11.20;5.03;;;-40.00;99.90;;;;;;5028799;28;20623;-81
2022/07/14 06:16:35;;;;;;;12.70;6.03;;;-40.00;99.90;;;;;;5024616;28;20239;-83
2022/07/14 06:19:03;;;;;;;11.03;5.20;;;-40.00;99.90;;;;;;5035782;28;20639;-85
2022/07/14 06:21:29;;;;;;;12.07;5.77;;;-40.00;99.90;;;;;;5036632;28;20204;-75
2022/07/14 06:23:55;;;;;;;10.70;5.87;;;-40.00;99.90;;;;;;5025941;28;20555;-76
2022/07/14 06:26:22;;;;;;;14.73;6.20;;;-40.00;99.90;;;;;;5027355;28;20227;-69
2022/07/14 06:28:48;;;;;;;12.43;5.27;;;-40.00;99.90;;;;;;5026878;28;20268;-66
2022/07/14 06:31:15;;;;;;;10.70;4.93;;;-40.00;99.90;;;;;;5036436;28;20587;-69
2022/07/14 06:33:41;;;;;;;6.30;4.63;;;-40.00;99.90;;;;;;5028070;28;20240;-69
2022/07/14 06:36:08;;;;;;;7.53;4.23;;;-40.00;99.90;;;;;;5024768;28;20185;-69
2022/07/14 06:38:38;;;;;;;6.03;4.37;;;-40.00;99.90;;;;;;5024819;28;20205;-69
2022/07/14 06:41:06;;;;;;;7.50;3.83;;;-40.00;99.90;;;;;;5035463;28;20204;-69
2022/07/14 06:43:32;;;;;;;7.50;3.80;;;-40.00;99.90;;;;;;5035789;28;20264;-69
2022/07/14 06:45:58;;;;;;;6.70;4.47;;;-40.00;99.90;;;;;;5036194;28;20193;-69
2022/07/14 06:48:24;;;;;;;6.70;3.40;;;-40.00;99.90;;;;;;5025505;28;20177;-68
2022/07/14 06:50:50;;;;;;;8.40;3.83;;;-40.00;99.90;;;;;;5026926;28;20181;-68
2022/07/14 06:53:16;;;;;;;8.80;3.50;;;-40.00;99.90;;;;;;5036027;28;20184;-69
2022/07/14 06:55:42;;;;;;;10.03;4.83;;;-40.00;99.90;;;;;;5027981;28;20189;-66
2022/07/14 06:58:07;;;;;;;7.57;4.37;;;-40.00;99.90;;;;;;5028713;28;20188;-66
2022/07/14 07:00:33;;;;;;;6.83;3.83;;;-40.00;99.90;;;;;;5034701;28;20235;-67
2022/07/14 07:02:59;;;;;;;5.87;3.43;;;-40.00;99.90;;;;;;5035425;28;20173;-67
2022/07/14 07:08:09;;;;;;;7.03;4.10;;;-40.00;99.90;;;;;;5033364;28;20599;-66
2022/07/14 07:10:40;;;;;;;10.73;4.70;;;-40.00;99.90;;;;;;5035459;28;20189;-66
2022/07/14 07:13:08;;;;;;;11.97;4.10;;;-40.00;99.90;;;;;;5033024;28;20188;-67
2022/07/14 07:15:37;;;;;;;8.87;3.87;;;-40.00;99.90;;;;;;5034949;28;20184;-67
2022/07/14 07:18:04;;;;;;;8.70;3.67;;;-40.00;99.90;;;;;;5032790;28;20184;-66
2022/07/14 07:20:30;;;;;;;8.33;3.80;;;-40.00;99.90;;;;;;5035394;28;20200;-66
2022/07/14 07:22:55;;;;;;;6.60;4.23;;;-40.00;99.90;;;;;;5035223;28;20504;-67
2022/07/14 07:25:21;;;;;;;8.33;4.40;;;-40.00;99.90;;;;;;5035154;28;20173;-67
2022/07/14 07:27:47;;;;;;;6.10;3.43;;;-40.00;99.90;;;;;;5034872;28;20173;-66
2022/07/14 07:30:13;;;;;;;4.83;3.20;;;-40.00;99.90;;;;;;5035510;28;20744;-66
2022/07/14 07:32:38;;;;;;;6.37;3.93;;;-40.00;99.90;;;;;;5033245;28;20199;-69
2022/07/14 07:35:04;;;;;;;7.30;3.53;;;-40.00;99.90;;;;;;5034315;28;20223;-66
2022/07/14 07:37:30;;;;;;;7.67;3.90;;;-40.00;99.90;;;;;;5034548;28;20188;-67
2022/07/14 07:40:00;;;;;;;13.27;4.43;;;-40.00;99.90;;;;;;5034678;28;20208;-67
2022/07/14 07:42:26;;;;;;;12.20;3.70;;;-40.00;99.90;;;;;;5032108;28;20181;-67
2022/07/14 07:44:53;;;;;;;6.50;3.10;;;-40.00;99.90;;;;;;5035136;28;20186;-71
2022/07/14 07:47:19;;;;;;;5.57;3.13;;;-40.00;99.90;;;;;;5034960;28;20238;-70
2022/07/14 07:49:45;;;;;;;8.30;2.70;;;-40.00;99.90;;;;;;5032323;28;20172;-67
2022/07/14 07:52:10;;;;;;;5.70;2.53;;;-40.00;99.90;;;;;;5035243;28;20184;-68
2022/07/14 07:54:36;;;;;;;7.70;3.60;;;-40.00;99.70;;;;;;5032265;28;20185;-68
2022/07/14 07:57:02;;;;;;;6.90;3.20;;;-40.00;99.90;;;;;;5034235;28;20176;-70
2022/07/14 07:59:28;;;;;;;5.00;3.27;;;-40.00;97.50;;;;;;5031613;28;20176;-72
2022/07/14 08:01:54;;;;;;;5.80;3.60;;;-40.00;97.60;;;;;;5034932;28;20185;-67
2022/07/14 08:04:19;;;;;;;12.23;3.80;;;-40.00;96.50;;;;;;5035206;28;20501;-71
2022/07/14 08:06:46;;;;;;;5.83;3.10;;;-40.00;95.30;;;;;;5032441;28;20181;-78
2022/07/14 08:09:12;;;;;;;6.47;3.23;;;-40.00;95.00;;;;;;5038299;28;20184;-78
2022/07/14 08:11:40;;;;;;;4.20;2.30;;;-40.00;95.70;;;;;;5038883;28;20188;-73
2022/07/14 08:14:47;;;;;;;7.23;3.90;;;-40.00;95.40;;;;;;5036191;28;20173;-74
2022/07/14 08:16:53;;;;;;;7.47;3.67;;;-40.00;95.20;;;;;;5036499;28;20599;-80
2022/07/14 08:19:18;;;;;;;11.90;3.70;;;-40.00;96.50;;;;;;5038467;28;20185;-84
2022/07/14 08:21:44;;;;;;;5.17;3.03;;;-40.00;96.20;;;;;;5038800;28;20244;-79
2022/07/14 08:24:10;;;;;;;15.40;3.73;;;-40.00;96.10;;;;;;5029834;28;20255;-77
2022/07/14 08:26:37;;;;;;;6.57;3.23;;;-40.00;95.20;;;;;;5036072;28;20180;-83
2022/07/14 08:29:03;;;;;;;6.73;3.40;;;-40.00;96.10;;;;;;5039351;28;20176;-70
2022/07/14 08:31:28;;;;;;;7.20;3.10;;;-40.00;96.30;;;;;;5039527;28;20238;-67
2022/07/14 08:33:54;;;;;;;5.17;3.03;;;-40.00;94.90;;;;;;5029018;28;20176;-73
2022/07/14 08:36:20;;;;;;;6.10;2.87;;;-40.00;95.40;;;;;;5028659;28;20181;-67
2022/07/14 08:38:45;;;;;;;8.27;3.33;;;-40.00;94.30;;;;;;5027193;28;20208;-73
2022/07/14 08:41:11;;;;;;;7.83;2.67;;;-40.00;92.20;;;;;;5029267;28;20243;-68
2022/07/14 08:43:38;;;;;;;7.67;3.33;;;-40.00;92.20;;;;;;5027275;28;20216;-67
2022/07/14 08:46:04;;;;;;;9.20;2.97;;;-40.00;91.10;;;;;;5038029;28;20200;-72
2022/07/14 08:48:31;;;;;;;8.27;3.17;;;-40.00;90.80;;;;;;5038050;28;20177;-66
2022/07/14 08:50:58;;;;;;;3.87;2.27;;;-40.00;90.70;;;;;;5038172;28;20188;-74
2022/07/14 08:53:26;;;;;;;6.07;2.50;;;-40.00;87.40;;;;;;5038091;28;20276;-67
2022/07/14 08:55:52;;;;;;;7.23;2.40;;;-40.00;85.50;;;;;;5037785;28;20247;-72
2022/07/14 08:58:18;;;;;;;4.63;2.27;;;-40.00;88.10;;;;;;5038171;28;20195;-67
2022/07/14 09:00:44;;;;;;;8.33;3.07;;;-40.00;89.00;;;;;;5026715;28;20209;-68
2022/07/14 09:03:09;;;;;;;7.57;2.40;;;-40.00;88.30;;;;;;5036844;28;20183;-73
2022/07/14 09:05:45;;;;;;;2.17;1.73;;;-40.00;84.70;;;;;;5038185;28;20264;-75
2022/07/14 09:08:12;;;;;;;4.53;1.63;;;23.40;99.90;;;;;;5034949;28;20177;-74
2022/07/14 09:10:41;;;;;;;5.60;2.50;;;23.40;99.90;;;;;;5037858;28;20199;-72
2022/07/14 09:13:17;;;;;;;5.67;2.30;;;22.80;99.90;;;;;;5038069;28;20283;-73
2022/07/14 09:15:47;;;;;;;12.60;2.87;;;22.70;99.90;;;;;;5037906;28;20568;-81
2022/07/14 09:18:26;;;;;;;3.13;1.90;;;22.50;99.60;;;;;;5037422;28;20259;-74
2022/07/14 09:20:54;;;;;;;2.47;2.00;;;22.20;98.80;;;;;;5033767;28;20200;-69
2022/07/14 09:23:33;;;;;;;4.07;1.30;;;23.70;99.40;;;;;;5037619;28;20172;-68
2022/07/14 09:26:20;;;;;;;3.10;1.37;;;23.90;98.60;;;;;;5035578;28;20592;-71
2022/07/14 09:28:48;;;;;;;4.97;1.53;;;23.80;97.00;;;;;;5036725;28;20176;-67
2022/07/14 09:31:22;;;;;;;7.23;1.93;;;23.90;98.10;;;;;;5035271;28;20177;-69
2022/07/14 09:33:56;;;;;;;13.30;2.27;;;23.90;98.60;;;;;;5026672;28;20588;-68
2022/07/14 09:36:30;;;;;;;2.67;2.17;;;23.90;99.40;;;;;;5026771;28;20526;-74
2022/07/14 09:39:03;;;;;;;3.53;2.10;;;23.90;99.90;;;;;;5034959;28;20194;-83
2022/07/14 09:41:33;;;;;;;4.97;1.93;;;23.90;99.90;;;;;;5037382;28;20357;-81
2022/07/14 09:44:12;;;;;;;4.57;2.43;;;23.90;99.70;;;;;;5037649;28;20184;-65
2022/07/14 09:46:51;;;;;;;5.30;2.97;;;24.10;99.90;;;;;;5036134;28;20485;-69
2022/07/14 09:49:18;;;;;;;6.43;2.30;;;24.10;99.90;;;;;;5035281;28;20211;-74
2022/07/14 09:51:52;;;;;;;4.60;2.53;;;23.80;99.90;;;;;;5036458;28;20184;-73
2022/07/14 09:54:37;;;;;;;8.13;2.67;;;23.20;99.50;;;;;;5035235;28;20210;-70
2022/07/14 09:57:12;;;;;;;5.77;2.40;;;23.90;99.50;;;;;;5035373;28;20180;-70
2022/07/14 09:59:48;;;;;;;3.17;2.57;;;23.80;99.10;;;;;;5035256;28;20206;-68
2022/07/14 10:02:29;;;;;;;8.37;3.03;;;23.80;99.20;;;;;;5034581;28;20586;-73
2022/07/14 10:05:05;;;;;;;4.87;2.43;;;23.80;99.00;;;;;;5033304;28;20532;-66
2022/07/14 10:07:38;;;;;;;4.30;2.43;;;23.70;99.20;;;;;;5036404;28;20164;-68
2022/07/14 10:10:12;;;;;;;10.43;3.00;;;23.90;99.90;;;;;;5036703;28;20579;-67
2022/07/14 10:12:41;;;;;;;3.77;2.30;;;23.90;99.90;;;;;;5034563;28;20596;-67
2022/07/14 10:15:10;;;;;;;6.80;2.27;;;23.90;99.10;;;;;;5036697;28;20229;-69
2022/07/14 10:17:38;;;;;;;5.87;2.27;;;23.80;99.20;;;;;;5034066;28;20208;-70
2022/07/14 10:20:06;;;;;;;10.73;3.73;;;23.80;98.60;;;;;;5036487;28;20250;-68
2022/07/14 10:22:32;;;;;;;6.77;3.67;;;23.90;99.90;;;;;;5036299;28;20181;-67
2022/07/14 10:24:58;;;;;;;6.30;3.13;;;23.80;99.10;;;;;;5036326;28;20450;-80
2022/07/14 10:27:27;;;;;;;7.93;2.00;;;24.00;99.70;;;;;;5036356;28;20610;-68
2022/07/14 10:29:56;;;;;;;6.30;1.90;;;23.90;98.50;;;;;;5036368;28;20169;-67
2022/07/14 10:32:37;;;;;;;14.27;2.63;;;24.00;98.90;;;;;;5036047;28;20250;-74
2022/07/14 10:35:03;;;;;;;10.43;4.47;;;24.00;99.30;;;;;;5034942;28;20462;-68
2022/07/14 10:37:51;;;;;;;4.63;2.00;;;23.90;98.70;;;;;;5035682;28;20183;-74
2022/07/14 10:40:59;;;;;;;3.67;2.00;;;24.00;99.50;;;;;;5033387;28;20232;-77
2022/07/14 10:43:39;;;;;;;4.87;1.83;;;24.00;98.40;;;;;;5034400;28;20240;-73
2022/07/14 10:46:07;;;;;;;4.10;1.80;;;24.10;98.30;;;;;;5034410;28;20193;-68
2022/07/14 10:48:34;;;;;;;3.67;1.73;;;23.00;96.60;;;;;;5034863;28;20639;-66
2022/07/14 10:51:26;;;;;;;5.47;2.03;;;24.70;97.10;;;;;;5035475;28;20176;-67
2022/07/14 10:54:21;;;;;;;3.70;2.73;;;25.10;97.00;;;;;;5034265;28;20169;-67
2022/07/14 10:56:47;;;;;;;8.97;2.50;;;-40.00;61.80;;;;;;5033765;28;20465;-71
2022/07/14 10:59:25;;;;;;;5.10;1.97;;;-40.00;58.00;;;;;;5035484;28;20234;-75
2022/07/14 11:02:13;;;;;;;4.00;1.93;;;-20.80;64.60;;;;;;5035121;28;20316;-68
2022/07/14 11:07:40;;;;;;;3.70;2.57;;;24.20;92.60;;;;;;5033449;28;20164;-67
2022/07/14 11:10:18;;;;;;;3.13;1.80;;;26.10;91.90;;;;;;5033923;28;20229;-70
2022/07/14 11:13:02;;;;;;;4.17;2.37;;;26.30;93.10;;;;;;5033661;28;20187;-67
2022/07/14 11:15:38;;;;;;;5.60;1.70;;;26.30;93.50;;;;;;5033424;28;20173;-67
2022/07/14 11:18:26;;;;;;;6.87;1.90;;;26.30;92.40;;;;;;5032395;28;20176;-67
2022/07/14 11:21:01;;;;;;;6.23;2.30;;;26.00;93.00;;;;;;5034026;28;20196;-72
2022/07/14 11:23:34;;;;;;;4.73;2.20;;;25.50;92.90;;;;;;5033900;28;20171;-68
2022/07/14 11:26:24;;;;;;;4.43;2.10;;;-40.00;52.80;;;;;;5032438;28;20176;-67
2022/07/14 11:28:52;;;;;;;5.50;2.47;;;-40.00;53.00;;;;;;5027788;28;20181;-68
2022/07/14 11:31:23;;;;;;;2.83;1.53;;;-40.00;53.00;;;;;;5034998;28;20177;-73
2022/07/14 11:36:39;;;;;;;6.13;1.77;;;-40.00;48.70;;;;;;5034808;28;20239;-71
2022/07/14 11:39:20;;;;;;;5.23;1.70;;;-40.00;48.90;;;;;;5034928;28;20630;-69
2022/07/14 11:41:48;;;;;;;6.60;1.90;;;-40.00;46.90;;;;;;5033104;28;20292;-67
2022/07/14 11:44:41;;;;;;;3.90;1.77;;;-40.00;47.90;;;;;;5034734;28;20539;-67
2022/07/14 11:47:23;;;;;;;2.80;2.07;;;-40.00;49.80;;;;;;5031920;28;20284;-67
2022/07/14 11:50:05;;;;;;;4.83;1.90;;;-40.00;50.80;;;;;;5033569;28;20169;-74
2022/07/14 11:52:33;;;;;;;3.63;1.77;;;-40.00;49.00;;;;;;5033495;28;20172;-73
2022/07/14 11:55:01;;;;;;;3.13;2.53;;;-40.00;48.00;;;;;;5034711;28;20187;-71
2022/07/14 11:57:28;;;;;;;2.73;1.53;;;-40.00;46.80;;;;;;5034863;28;20176;-68
2022/07/14 12:00:00;;;;;;;3.25;1.90;;;-40.00;44.50;;;;;;5034821;28;20282;-71
2022/07/14 12:02:26;;;;;;;4.70;2.72;;;-40.00;45.50;;;;;;5032021;28;20207;-70
2022/07/14 12:04:53;;;;;;;2.88;1.92;;;-40.00;40.70;;;;;;5035065;28;20204;-68
2022/07/14 12:07:40;;;;;;;5.10;2.85;;;-40.00;45.90;;;;;;5033710;28;20219;-67
2022/07/14 12:10:06;;;;;;;3.60;1.90;;;-40.00;44.90;;;;;;5027073;28;20200;-67
2022/07/14 12:12:42;;;;;;;3.00;1.88;;;-40.00;41.60;;;;;;5023584;28;20203;-67
2022/07/14 12:15:09;;;;;;;6.00;2.55;;;-40.00;41.00;;;;;;5032680;28;20184;-68
2022/07/14 12:17:55;;;;;;;5.47;1.58;;;-40.00;36.10;;;;;;5034593;28;20173;-67
2022/07/14 12:20:22;;;;;;;3.58;1.98;;;-40.00;37.90;;;;;;5058207;28;20188;-67
2022/07/14 12:22:54;;;;;;;4.03;1.80;;;-40.00;35.70;;;;;;5034680;28;20594;-67
2022/07/14 12:25:31;;;;;;;6.28;3.38;;;-40.00;35.70;;;;;;5034528;28;20175;-67
2022/07/14 12:28:03;;;;;;;2.83;1.92;;;-40.00;40.60;;;;;;5034934;28;20252;-66
2022/07/14 12:30:55;;;;;;;4.28;2.72;;;-40.00;37.50;;;;;;5032924;28;20184;-67
2022/07/14 12:33:32;;;;;;;21.25;2.50;;;-40.00;38.70;;;;;;5033749;28;20187;-67
2022/07/14 12:36:00;;;;;;;2.67;1.73;;;-40.00;38.60;;;;;;5034951;28;20172;-68
2022/07/14 12:38:30;;;;;;;6.32;2.00;;;-40.00;38.20;;;;;;5032122;28;20189;-72
2022/07/14 12:41:04;;;;;;;2.55;1.45;;;-40.00;40.30;;;;;;5034743;28;20235;-67
2022/07/14 12:43:39;;;;;;;5.20;2.40;;;-40.00;39.70;;;;;;5032626;28;20165;-67
2022/07/14 12:46:23;;;;;;;4.65;1.90;;;-40.00;40.60;;;;;;5031806;28;20249;-67
2022/07/14 12:48:52;;;;;;;6.10;1.92;;;-40.00;40.50;;;;;;5032665;28;20192;-66
2022/07/14 12:51:23;;;;;;;6.47;2.10;;;-40.00;38.80;;;;;;5034501;28;20192;-67
2022/07/14 12:53:59;;;;;;;2.60;2.08;;;-40.00;40.50;;;;;;5033360;28;20184;-67
2022/07/14 12:56:26;;;;;;;4.15;2.08;;;-40.00;38.10;;;;;;5037607;28;20238;-66
2022/07/14 12:58:53;;;;;;;5.78;2.20;;;-40.00;39.70;;;;;;5038485;28;20192;-66
2022/07/14 13:01:19;;;;;;;8.95;2.45;;;-40.00;40.80;;;;;;5027186;28;20206;-68